createdAt,value
2022-10-17T00:01:11.338Z,89.36
2022-10-17T00:03:40.195Z,88.81
2022-10-17T00:06:12.688Z,85.59
2022-10-17T00:08:42.133Z,84.43
2022-10-17T00:11:16.692Z,83.84
2022-10-17T00:13:47.099Z,85.90
2022-10-17T00:16:16.693Z,84.99
2022-10-17T00:18:45.002Z,86.44
2022-10-17T00:21:17.887Z,85.21
2022-10-17T00:23:47.223Z,85.99
2022-10-17T00:26:16.197Z,87.46
2022-10-17T00:28:53.564Z,88.09
2022-10-17T00:31:23.385Z,86.98
2022-10-17T00:33:52.405Z,86.15
2022-10-17T00:36:23.612Z,86.27
2022-10-17T00:38:57.757Z,85.50
2022-10-17T00:41:31.988Z,85.57
2022-10-17T00:44:04.525Z,86.50
2022-10-17T00:46:39.144Z,87.49
2022-10-17T00:49:12.776Z,87.00
2022-10-17T00:51:43.261Z,86.13
2022-10-17T00:54:14.369Z,85.53
2022-10-17T00:56:43.734Z,86.95
2022-10-17T00:59:14.003Z,87.30
2022-10-17T01:01:47.126Z,87.20
2022-10-17T01:04:15.970Z,86.16
2022-10-17T01:06:44.074Z,85.95
2022-10-17T01:09:12.281Z,86.52
2022-10-17T01:12:13.277Z,87.28
2022-10-17T01:15:00.348Z,86.17
2022-10-17T01:18:03.116Z,85.40
2022-10-17T01:21:09.910Z,86.72
2022-10-17T01:23:49.094Z,87.42
2022-10-17T01:26:23.276Z,87.61
2022-10-17T01:29:16.600Z,87.94
2022-10-17T01:31:47.919Z,88.87
2022-10-17T01:34:41.445Z,87.99
2022-10-17T01:37:14.881Z,87.72
2022-10-17T01:39:58.325Z,87.85
2022-10-17T01:42:59.029Z,88.04
2022-10-17T01:45:35.245Z,87.53
2022-10-17T01:48:10.115Z,87.75
2022-10-17T01:50:44.738Z,88.33
2022-10-17T01:53:28.521Z,86.68
2022-10-17T01:56:02.288Z,85.85
2022-10-17T01:58:42.359Z,86.02
2022-10-17T02:01:12.756Z,86.19
2022-10-17T02:03:43.862Z,87.39
2022-10-17T02:06:12.322Z,88.81
2022-10-17T02:08:43.845Z,87.63
2022-10-17T02:11:21.487Z,87.01
2022-10-17T02:14:14.889Z,85.93
2022-10-17T02:16:58.006Z,85.35
2022-10-17T02:19:44.500Z,85.40
2022-10-17T02:22:12.706Z,85.83
2022-10-17T02:24:49.782Z,85.42
2022-10-17T02:27:20.893Z,85.79
2022-10-17T02:29:54.475Z,86.07
2022-10-17T02:32:35.242Z,84.72
2022-10-17T02:35:07.614Z,85.21
2022-10-17T02:37:36.692Z,85.99
2022-10-17T02:40:07.083Z,87.29
2022-10-17T02:42:39.544Z,88.36
2022-10-17T02:45:09.125Z,89.57
2022-10-17T02:48:00.174Z,88.19
2022-10-17T02:50:38.251Z,88.51
2022-10-17T02:53:11.837Z,89.90
2022-10-17T02:55:55.375Z,91.03
2022-10-17T02:58:32.163Z,90.56
2022-10-17T03:01:02.219Z,90.22
2022-10-17T03:03:32.521Z,89.73
2022-10-17T03:06:03.216Z,90.35
2022-10-17T03:08:31.389Z,89.93
2022-10-17T03:10:59.545Z,87.81
2022-10-17T03:13:29.974Z,87.43
2022-10-17T03:15:58.361Z,90.91
2022-10-17T03:18:26.358Z,91.40
2022-10-17T03:20:57.634Z,89.18
2022-10-17T03:23:25.825Z,87.90
2022-10-17T03:25:54.078Z,89.12
2022-10-17T03:28:22.358Z,89.22
2022-10-17T03:30:50.518Z,87.92
2022-10-17T03:33:18.575Z,87.48
2022-10-17T03:35:46.746Z,87.24
2022-10-17T03:38:15.255Z,87.59
2022-10-17T03:40:43.340Z,87.76
2022-10-17T03:43:12.141Z,88.62
2022-10-17T03:45:40.835Z,89.34
2022-10-17T03:48:08.993Z,89.30
2022-10-17T03:50:37.020Z,88.72
2022-10-17T03:53:05.149Z,88.28
2022-10-17T03:55:33.539Z,88.75
2022-10-17T03:58:01.504Z,89.12
2022-10-17T04:00:29.979Z,88.80
2022-10-17T04:02:58.832Z,89.26
2022-10-17T04:05:27.284Z,89.91
2022-10-17T04:07:55.328Z,90.42
2022-10-17T04:10:29.728Z,90.10
2022-10-17T04:12:58.088Z,90.27
2022-10-17T04:15:26.388Z,90.42
2022-10-17T04:17:55.061Z,89.78
2022-10-17T04:20:29.696Z,89.65
2022-10-17T04:23:01.962Z,88.53
2022-10-17T04:25:33.375Z,88.78
2022-10-17T04:28:04.210Z,88.56
2022-10-17T04:30:33.389Z,87.92
2022-10-17T04:33:01.572Z,87.95
2022-10-17T04:35:31.405Z,88.05
2022-10-17T04:38:03.377Z,87.65
2022-10-17T04:40:31.566Z,87.91
2022-10-17T04:43:00.243Z,87.50
2022-10-17T04:45:35.490Z,86.24
2022-10-17T04:48:07.633Z,85.83
2022-10-17T04:50:35.863Z,85.47
2022-10-17T04:53:49.221Z,86.36
2022-10-17T04:56:22.151Z,86.65
2022-10-17T04:58:51.440Z,85.56
2022-10-17T05:01:23.247Z,84.29
2022-10-17T05:04:09.667Z,85.15
2022-10-17T05:06:50.342Z,84.66
2022-10-17T05:09:46.317Z,83.70
2022-10-17T05:12:22.557Z,81.67
2022-10-17T05:14:52.671Z,79.57
2022-10-17T05:17:23.945Z,76.74
2022-10-17T05:19:59.860Z,75.67
2022-10-17T05:22:29.821Z,73.67
2022-10-17T05:25:01.811Z,71.77
2022-10-17T05:27:36.610Z,70.74
2022-10-17T05:30:12.235Z,69.52
2022-10-17T05:32:54.106Z,68.69
2022-10-17T05:35:33.263Z,67.29
2022-10-17T10:22:30.242Z,15.64
2022-10-17T10:25:19.412Z,14.83
2022-10-17T10:27:48.142Z,14.51
2022-10-17T10:30:23.139Z,14.32
2022-10-17T10:32:51.708Z,14.39
2022-10-17T10:35:32.213Z,14.70
2022-10-17T10:38:10.623Z,14.02
2022-10-17T10:40:50.283Z,13.54
2022-10-17T10:43:47.252Z,13.73
2022-10-17T10:46:26.457Z,13.53
2022-10-17T10:49:01.525Z,12.19
2022-10-17T10:51:50.931Z,12.33
2022-10-17T10:58:49.047Z,13.30
2022-10-17T11:01:59.420Z,11.58
2022-10-17T11:04:29.471Z,11.81
2022-10-17T11:07:25.594Z,12.32
2022-10-17T11:10:23.149Z,12.79
2022-10-17T11:13:14.940Z,13.02
2022-10-17T11:15:57.280Z,11.93
2022-10-17T11:18:44.378Z,13.58
2022-10-17T11:21:36.854Z,15.15
2022-10-17T11:24:09.339Z,16.29
2022-10-17T11:26:49.162Z,17.80
2022-10-17T11:29:17.837Z,18.27
2022-10-17T11:31:52.156Z,19.61
2022-10-17T11:34:25.396Z,20.45
2022-10-17T11:36:59.571Z,22.21
2022-10-17T11:40:03.776Z,22.89
2022-10-17T11:42:41.095Z,24.31
2022-10-17T11:45:15.405Z,24.93
2022-10-17T11:47:54.963Z,24.58
2022-10-17T11:53:22.202Z,26.22
2022-10-17T11:55:52.050Z,26.90
2022-10-17T11:58:35.949Z,27.34
2022-10-17T12:01:12.320Z,27.69
2022-10-17T12:03:42.271Z,27.63
2022-10-17T12:06:29.516Z,28.09
2022-10-17T12:09:18.959Z,28.28
2022-10-17T12:11:53.580Z,28.24
2022-10-17T12:14:41.143Z,28.65
2022-10-17T12:17:38.513Z,29.32
2022-10-17T12:20:21.414Z,29.78
2022-10-17T12:22:50.165Z,30.16
2022-10-17T12:25:24.138Z,30.23
2022-10-17T12:28:06.423Z,30.32
2022-10-17T12:30:34.118Z,30.55
2022-10-17T12:33:11.047Z,30.53
2022-10-17T12:35:38.840Z,30.89
2022-10-17T12:38:25.987Z,31.03
2022-10-17T12:41:01.294Z,31.69
2022-10-17T12:43:28.800Z,32.14
2022-10-17T12:45:58.726Z,32.67
2022-10-17T12:48:38.000Z,33.67
2022-10-17T12:51:34.139Z,33.41
2022-10-17T12:54:12.507Z,33.87
2022-10-17T12:56:49.232Z,33.96
2022-10-17T12:59:25.945Z,33.86
2022-10-17T13:01:59.087Z,33.94
2022-10-17T13:04:28.556Z,34.71
2022-10-17T13:06:58.657Z,34.56
2022-10-17T13:09:30.417Z,34.61
2022-10-17T13:12:03.439Z,34.75
2022-10-17T13:14:32.777Z,34.95
2022-10-17T13:17:05.639Z,34.49
2022-10-17T13:19:45.249Z,34.24
2022-10-17T13:22:27.667Z,33.96
2022-10-17T13:25:27.368Z,34.89
2022-10-17T13:28:13.351Z,34.63
2022-10-17T13:30:46.238Z,34.76
2022-10-17T13:33:31.158Z,35.22
2022-10-17T13:36:00.788Z,34.79
2022-10-17T13:38:32.260Z,34.11
2022-10-17T13:41:30.164Z,34.45
2022-10-17T13:43:52.441Z,35.21
2022-10-17T13:46:39.113Z,35.23
2022-10-17T13:49:26.197Z,35.47
2022-10-17T13:51:57.399Z,35.85
2022-10-17T13:54:30.386Z,35.32
2022-10-17T13:57:00.736Z,35.58
2022-10-17T13:59:39.790Z,35.25
2022-10-17T14:02:15.075Z,35.70
2022-10-17T14:05:11.590Z,35.76
2022-10-17T14:08:09.876Z,35.82
2022-10-17T14:10:39.096Z,35.33
2022-10-17T14:13:18.586Z,35.49
2022-10-17T14:15:46.247Z,35.96
2022-10-17T14:18:21.347Z,35.84
2022-10-17T14:23:43.702Z,36.35
2022-10-17T14:26:15.361Z,36.25
2022-10-17T14:28:45.697Z,36.64
2022-10-17T14:31:15.192Z,37.04
2022-10-17T14:33:50.590Z,37.58
2022-10-17T14:36:21.513Z,38.24
2022-10-17T14:38:51.747Z,37.94
2022-10-17T14:44:23.672Z,38.60
2022-10-17T14:47:30.735Z,38.19
2022-10-17T14:50:12.052Z,38.49
2022-10-17T14:52:40.552Z,38.32
2022-10-17T14:55:23.144Z,38.50
2022-10-17T14:57:50.226Z,38.95
2022-10-17T15:00:18.891Z,38.68
2022-10-17T15:02:46.740Z,38.34
2022-10-17T15:05:14.989Z,38.53
2022-10-17T15:07:42.171Z,38.82
2022-10-17T15:10:36.792Z,38.95
2022-10-17T15:13:26.554Z,39.10
2022-10-17T15:15:51.557Z,39.45
2022-10-17T15:18:18.917Z,39.60
2022-10-17T15:20:45.586Z,39.92
2022-10-17T15:23:12.269Z,40.15
2022-10-17T15:25:39.401Z,40.49
2022-10-17T15:28:06.051Z,40.92
2022-10-17T15:30:35.977Z,41.64
2022-10-17T15:33:03.177Z,41.96
2022-10-17T15:35:30.696Z,43.22
2022-10-17T15:37:57.429Z,44.10
2022-10-17T15:40:30.049Z,44.59
2022-10-17T15:42:56.870Z,44.74
2022-10-17T15:45:24.196Z,46.10
2022-10-17T15:48:02.234Z,47.27
2022-10-17T15:50:29.970Z,48.25
2022-10-17T15:52:56.765Z,49.21
2022-10-17T15:55:24.218Z,49.89
2022-10-17T15:57:51.040Z,51.08
2022-10-17T16:00:23.367Z,52.01
2022-10-17T16:02:50.648Z,53.68
2022-10-17T16:05:25.073Z,53.79
2022-10-17T16:07:53.402Z,54.93
2022-10-17T16:10:21.675Z,55.17
2022-10-17T16:12:49.481Z,56.60
2022-10-17T16:15:24.500Z,56.66
2022-10-17T16:17:53.198Z,57.98
2022-10-17T16:20:21.234Z,58.19
2022-10-17T16:22:50.122Z,59.48
2022-10-17T16:25:24.671Z,59.40
2022-10-17T16:27:54.341Z,60.00
2022-10-17T16:32:56.369Z,59.95
2022-10-17T16:35:33.078Z,60.68
2022-10-17T16:38:05.325Z,61.98
2022-10-17T16:40:32.795Z,61.72
2022-10-17T16:42:59.595Z,61.48
2022-10-17T16:45:26.275Z,62.04
2022-10-17T16:47:53.007Z,61.92
2022-10-17T16:50:20.040Z,63.07
2022-10-17T16:52:46.994Z,63.27
2022-10-17T16:55:13.984Z,63.90
2022-10-17T17:00:12.252Z,65.31
2022-10-17T17:02:39.080Z,65.95
2022-10-17T17:05:06.789Z,66.25
2022-10-17T17:07:34.066Z,65.86
2022-10-17T17:10:00.749Z,65.66
2022-10-17T17:12:27.439Z,66.68
2022-10-17T17:14:54.169Z,66.00
2022-10-17T17:17:44.578Z,66.04
2022-10-17T17:20:07.779Z,66.85
2022-10-17T17:22:34.633Z,66.67
2022-10-17T17:25:01.359Z,67.00
2022-10-17T17:27:28.474Z,67.23
2022-10-17T17:29:55.460Z,67.63
2022-10-17T17:32:22.314Z,67.53
2022-10-17T17:34:49.127Z,67.65
2022-10-17T17:37:15.782Z,67.51
2022-10-17T17:39:42.364Z,68.56
2022-10-17T17:42:09.213Z,69.89
2022-10-17T17:44:36.040Z,69.57
2022-10-17T17:47:02.766Z,70.40
2022-10-17T17:49:29.713Z,70.64
2022-10-17T17:51:56.518Z,71.07
2022-10-17T17:54:23.279Z,72.36
2022-10-17T17:56:50.071Z,71.77
2022-10-17T17:59:16.814Z,71.79
2022-10-17T18:01:43.707Z,71.44
2022-10-17T18:04:11.548Z,71.95
2022-10-17T18:06:39.312Z,71.70
2022-10-17T18:09:07.097Z,70.95
2022-10-17T18:11:34.776Z,71.19
2022-10-17T18:14:04.656Z,71.02
2022-10-17T18:16:33.667Z,70.69
2022-10-17T18:19:06.613Z,70.35
2022-10-17T18:21:35.507Z,70.47
2022-10-17T18:24:04.264Z,71.00
2022-10-17T18:26:31.138Z,71.20
2022-10-17T18:28:57.842Z,71.21
2022-10-17T18:31:27.983Z,71.39
2022-10-17T18:33:57.260Z,72.12
2022-10-17T18:36:25.649Z,71.84
2022-10-17T18:38:53.543Z,71.48
2022-10-17T18:41:23.171Z,71.88
2022-10-17T18:43:51.368Z,72.00
2022-10-17T18:46:21.135Z,71.68
2022-10-17T18:48:49.413Z,71.93
2022-10-17T18:51:19.809Z,71.86
2022-10-17T18:53:49.403Z,72.02
2022-10-17T18:56:17.664Z,72.41
2022-10-17T18:58:45.359Z,72.57
2022-10-17T19:01:15.703Z,72.60
2022-10-17T19:03:44.343Z,72.83
2022-10-17T19:06:13.912Z,73.41
2022-10-17T19:08:41.917Z,73.19
2022-10-17T19:11:12.658Z,73.28
2022-10-17T19:13:40.425Z,73.66
2022-10-17T19:16:18.974Z,73.77
2022-10-17T19:18:55.863Z,73.99
2022-10-17T19:21:23.075Z,73.91
2022-10-17T19:23:52.436Z,73.53
2022-10-17T19:26:20.526Z,73.53
2022-10-17T19:28:47.808Z,73.96
2022-10-17T19:31:17.945Z,75.09
2022-10-17T19:33:45.491Z,75.06
2022-10-17T19:36:13.140Z,75.13
2022-10-17T19:38:40.044Z,75.50
2022-10-17T19:41:08.886Z,75.30
2022-10-17T19:43:40.159Z,75.10
2022-10-17T19:46:11.847Z,74.89
2022-10-17T19:48:38.759Z,74.97
2022-10-17T19:51:12.275Z,74.64
2022-10-17T19:53:39.410Z,75.08
2022-10-17T19:56:06.821Z,75.73
2022-10-17T19:58:43.073Z,75.61
2022-10-17T20:01:12.106Z,75.61
2022-10-17T20:03:38.934Z,75.86
2022-10-17T20:06:06.279Z,75.67
2022-10-17T20:08:33.329Z,75.20
2022-10-17T20:11:08.896Z,74.97
2022-10-17T20:13:36.425Z,74.98
2022-10-17T20:16:04.814Z,75.15
2022-10-17T20:18:32.069Z,75.03
2022-10-17T20:21:05.403Z,75.02
2022-10-17T20:23:32.453Z,75.76
2022-10-17T20:26:25.526Z,76.14
2022-10-17T20:28:53.093Z,76.33
2022-10-17T20:31:20.374Z,76.06
2022-10-17T20:33:47.157Z,76.20
2022-10-17T20:36:14.244Z,76.43
2022-10-17T20:38:41.116Z,76.31
2022-10-17T20:41:09.722Z,75.87
2022-10-17T20:43:37.469Z,75.90
2022-10-17T20:46:15.786Z,75.74
2022-10-17T20:48:54.399Z,75.20
2022-10-17T20:51:21.398Z,74.87
2022-10-17T20:53:48.771Z,75.04
2022-10-17T20:56:25.308Z,75.34
2022-10-17T20:58:54.713Z,75.59
2022-10-17T21:01:22.348Z,75.60
2022-10-17T21:03:49.483Z,75.31
2022-10-17T21:06:17.386Z,75.05
2022-10-17T21:08:45.486Z,75.23
2022-10-17T21:11:16.236Z,75.28
2022-10-17T21:13:44.010Z,75.74
2022-10-17T21:16:13.671Z,75.64
2022-10-17T21:18:41.035Z,76.23
2022-10-17T21:21:10.872Z,77.99
2022-10-17T21:23:39.145Z,77.97
2022-10-17T21:26:09.954Z,78.40
2022-10-17T21:28:37.079Z,78.33
2022-10-17T21:31:20.185Z,78.96
2022-10-17T21:33:49.875Z,78.85
2022-10-17T21:36:17.943Z,78.09
2022-10-17T21:38:46.495Z,77.73
2022-10-17T21:41:15.790Z,77.09
2022-10-17T21:43:42.845Z,77.09
2022-10-17T21:46:12.187Z,77.68
2022-10-17T21:48:39.091Z,77.73
2022-10-17T21:51:09.529Z,77.69
2022-10-17T21:53:37.145Z,77.33
2022-10-17T21:56:06.982Z,77.35
2022-10-17T21:58:33.987Z,78.21
2022-10-17T22:01:14.719Z,78.99
2022-10-17T22:03:46.814Z,79.81
2022-10-17T22:09:05.648Z,79.35
2022-10-17T22:11:34.972Z,79.20
2022-10-17T22:14:05.427Z,79.10
2022-10-17T22:16:33.034Z,80.68
2022-10-17T22:19:04.929Z,80.90
2022-10-17T22:21:35.502Z,81.40
2022-10-17T22:24:05.972Z,81.37
2022-10-17T22:26:34.494Z,81.08
2022-10-17T22:29:01.705Z,81.39
2022-10-17T22:31:28.504Z,81.87
2022-10-17T22:33:55.685Z,82.13
2022-10-17T22:36:22.516Z,81.99
2022-10-17T22:38:49.840Z,81.56
2022-10-17T22:41:17.289Z,81.44
2022-10-17T22:43:44.330Z,80.76
2022-10-17T22:46:13.242Z,80.49
2022-10-17T22:48:40.022Z,80.54
2022-10-17T22:51:06.887Z,80.85
2022-10-17T22:53:34.685Z,81.11
2022-10-17T22:56:06.287Z,80.68
2022-10-17T22:58:34.485Z,80.28
2022-10-17T23:01:02.399Z,79.80
2022-10-17T23:03:30.857Z,80.99
2022-10-17T23:05:58.188Z,80.96
2022-10-17T23:08:26.735Z,81.11
2022-10-17T23:10:53.826Z,81.63
2022-10-17T23:13:21.400Z,81.54
2022-10-17T23:15:56.110Z,81.23
2022-10-17T23:18:24.940Z,80.12
2022-10-17T23:20:52.717Z,79.57
2022-10-17T23:23:20.310Z,79.46
2022-10-17T23:25:47.878Z,79.83
2022-10-17T23:28:14.965Z,80.14
2022-10-17T23:30:41.836Z,81.50
2022-10-17T23:33:11.200Z,81.45
2022-10-17T23:35:38.049Z,80.68
2022-10-17T23:38:04.711Z,81.18
2022-10-17T23:40:31.606Z,81.82
2022-10-17T23:42:58.545Z,81.69
2022-10-17T23:45:25.256Z,80.94
2022-10-17T23:47:52.140Z,81.30
2022-10-17T23:50:18.769Z,80.55
2022-10-17T23:52:45.501Z,80.21
2022-10-17T23:55:12.370Z,81.84
2022-10-17T23:57:39.010Z,81.31
